sensor_id;sensor_type;location;lat;lon;timestamp;temperature;humidity
37324;DHT22;23205;49.986;18.950;2023-01-15T00:04:50;7.50;93.60
37324;DHT22;23205;49.986;18.950;2023-01-15T00:09:51;7.50;93.10
37324;DHT22;23205;49.986;18.950;2023-01-15T00:14:52;7.50;93.10
37324;DHT22;23205;49.986;18.950;2023-01-15T00:19:52;7.70;92.50
37324;DHT22;23205;49.986;18.950;2023-01-15T00:24:53;7.70;92.30
37324;DHT22;23205;49.986;18.950;2023-01-15T00:30:13;7.70;91.80
37324;DHT22;23205;49.986;18.950;2023-01-15T00:35:16;7.80;91.40
37324;DHT22;23205;49.986;18.950;2023-01-15T00:40:20;7.70;92.00
37324;DHT22;23205;49.986;18.950;2023-01-15T00:45:21;7.70;92.20
37324;DHT22;23205;49.986;18.950;2023-01-15T00:50:22;7.70;92.30
37324;DHT22;23205;49.986;18.950;2023-01-15T00:55:23;7.70;92.30
37324;DHT22;23205;49.986;18.950;2023-01-15T01:00:24;7.70;92.20
37324;DHT22;23205;49.986;18.950;2023-01-15T01:05:25;7.80;92.40
37324;DHT22;23205;49.986;18.950;2023-01-15T01:10:26;7.80;92.30
37324;DHT22;23205;49.986;18.950;2023-01-15T01:15:27;7.80;91.70
37324;DHT22;23205;49.986;18.950;2023-01-15T01:20:28;7.80;91.60
37324;DHT22;23205;49.986;18.950;2023-01-15T01:25:29;7.80;91.40
37324;DHT22;23205;49.986;18.950;2023-01-15T01:30:29;7.80;91.60
37324;DHT22;23205;49.986;18.950;2023-01-15T01:35:31;7.80;91.60
37324;DHT22;23205;49.986;18.950;2023-01-15T01:40:32;7.70;92.50
37324;DHT22;23205;49.986;18.950;2023-01-15T01:45:33;7.70;92.50
37324;DHT22;23205;49.986;18.950;2023-01-15T01:50:33;7.70;92.10
37324;DHT22;23205;49.986;18.950;2023-01-15T01:55:35;7.70;92.10
37324;DHT22;23205;49.986;18.950;2023-01-15T02:00:37;7.80;91.70
37324;DHT22;23205;49.986;18.950;2023-01-15T02:05:39;7.80;91.50
37324;DHT22;23205;49.986;18.950;2023-01-15T02:10:40;7.80;90.80
37324;DHT22;23205;49.986;18.950;2023-01-15T02:15:46;7.70;91.80
37324;DHT22;23205;49.986;18.950;2023-01-15T02:31:16;7.70;91.80
37324;DHT22;23205;49.986;18.950;2023-01-15T02:36:17;7.80;91.30
37324;DHT22;23205;49.986;18.950;2023-01-15T02:41:24;7.80;91.40
37324;DHT22;23205;49.986;18.950;2023-01-15T02:46:35;7.90;91.00
37324;DHT22;23205;49.986;18.950;2023-01-15T02:52:02;7.80;91.50
37324;DHT22;23205;49.986;18.950;2023-01-15T02:57:02;7.80;91.10
37324;DHT22;23205;49.986;18.950;2023-01-15T03:02:05;7.90;91.40
37324;DHT22;23205;49.986;18.950;2023-01-15T03:07:43;8.00;91.30
37324;DHT22;23205;49.986;18.950;2023-01-15T03:18:01;8.20;92.20
37324;DHT22;23205;49.986;18.950;2023-01-15T03:23:05;8.20;93.10
37324;DHT22;23205;49.986;18.950;2023-01-15T03:28:11;8.20;93.10
37324;DHT22;23205;49.986;18.950;2023-01-15T03:33:13;8.30;93.70
37324;DHT22;23205;49.986;18.950;2023-01-15T03:38:17;8.30;95.40
37324;DHT22;23205;49.986;18.950;2023-01-15T03:43:20;8.30;97.60
37324;DHT22;23205;49.986;18.950;2023-01-15T03:49:02;8.20;97.80
37324;DHT22;23205;49.986;18.950;2023-01-15T03:54:16;8.30;97.10
37324;DHT22;23205;49.986;18.950;2023-01-15T03:59:22;8.30;96.50
37324;DHT22;23205;49.986;18.950;2023-01-15T04:04:31;8.30;95.30
37324;DHT22;23205;49.986;18.950;2023-01-15T04:09:37;8.20;95.10
37324;DHT22;23205;49.986;18.950;2023-01-15T04:14:40;8.20;94.30
37324;DHT22;23205;49.986;18.950;2023-01-15T04:19:44;8.20;94.40
37324;DHT22;23205;49.986;18.950;2023-01-15T04:24:47;8.10;94.60
37324;DHT22;23205;49.986;18.950;2023-01-15T04:29:47;8.10;94.40
37324;DHT22;23205;49.986;18.950;2023-01-15T04:34:48;8.10;94.30
37324;DHT22;23205;49.986;18.950;2023-01-15T04:39:49;8.10;94.60
37324;DHT22;23205;49.986;18.950;2023-01-15T04:44:50;8.10;94.50
37324;DHT22;23205;49.986;18.950;2023-01-15T04:49:50;7.90;94.10
37324;DHT22;23205;49.986;18.950;2023-01-15T04:54:53;8.20;93.60
37324;DHT22;23205;49.986;18.950;2023-01-15T04:59:53;8.30;93.60
37324;DHT22;23205;49.986;18.950;2023-01-15T05:04:54;8.40;93.10
37324;DHT22;23205;49.986;18.950;2023-01-15T05:09:55;8.30;93.00
37324;DHT22;23205;49.986;18.950;2023-01-15T05:14:56;8.20;92.80
37324;DHT22;23205;49.986;18.950;2023-01-15T05:19:56;8.20;93.00
37324;DHT22;23205;49.986;18.950;2023-01-15T05:24:57;8.20;93.10
37324;DHT22;23205;49.986;18.950;2023-01-15T05:29:58;8.10;93.00
37324;DHT22;23205;49.986;18.950;2023-01-15T05:34:58;8.10;92.80
37324;DHT22;23205;49.986;18.950;2023-01-15T05:39:59;8.00;93.60
37324;DHT22;23205;49.986;18.950;2023-01-15T05:45:00;8.00;93.60
37324;DHT22;23205;49.986;18.950;2023-01-15T05:50:00;7.90;93.90
37324;DHT22;23205;49.986;18.950;2023-01-15T05:55:01;7.90;94.30
37324;DHT22;23205;49.986;18.950;2023-01-15T06:00:03;7.80;94.50
37324;DHT22;23205;49.986;18.950;2023-01-15T06:05:13;7.70;94.60
37324;DHT22;23205;49.986;18.950;2023-01-15T06:10:17;7.80;93.70
37324;DHT22;23205;49.986;18.950;2023-01-15T06:15:18;7.80;93.50
37324;DHT22;23205;49.986;18.950;2023-01-15T06:20:19;7.80;93.20
37324;DHT22;23205;49.986;18.950;2023-01-15T06:25:19;7.90;92.40
37324;DHT22;23205;49.986;18.950;2023-01-15T06:30:20;7.80;92.30
37324;DHT22;23205;49.986;18.950;2023-01-15T06:35:21;7.90;91.90
37324;DHT22;23205;49.986;18.950;2023-01-15T06:40:22;7.90;92.30
37324;DHT22;23205;49.986;18.950;2023-01-15T06:45:23;7.90;92.00
37324;DHT22;23205;49.986;18.950;2023-01-15T06:50:42;8.00;91.50
37324;DHT22;23205;49.986;18.950;2023-01-15T06:55:43;7.90;92.10
37324;DHT22;23205;49.986;18.950;2023-01-15T07:00:44;7.90;91.70
37324;DHT22;23205;49.986;18.950;2023-01-15T07:05:46;8.00;91.20
37324;DHT22;23205;49.986;18.950;2023-01-15T07:10:46;8.00;90.90
37324;DHT22;23205;49.986;18.950;2023-01-15T07:15:47;8.10;90.40
37324;DHT22;23205;49.986;18.950;2023-01-15T07:20:48;8.00;90.00
37324;DHT22;23205;49.986;18.950;2023-01-15T07:25:49;8.20;88.90
37324;DHT22;23205;49.986;18.950;2023-01-15T07:30:51;8.20;88.40
37324;DHT22;23205;49.986;18.950;2023-01-15T07:35:51;8.20;88.90
37324;DHT22;23205;49.986;18.950;2023-01-15T07:40:54;8.30;88.20
37324;DHT22;23205;49.986;18.950;2023-01-15T07:46:01;8.30;88.20
37324;DHT22;23205;49.986;18.950;2023-01-15T07:51:21;8.30;88.20
37324;DHT22;23205;49.986;18.950;2023-01-15T07:56:22;8.20;88.40
37324;DHT22;23205;49.986;18.950;2023-01-15T08:01:23;8.30;86.80
37324;DHT22;23205;49.986;18.950;2023-01-15T08:06:23;8.30;85.30
37324;DHT22;23205;49.986;18.950;2023-01-15T08:11:25;8.30;84.60
37324;DHT22;23205;49.986;18.950;2023-01-15T08:16:44;8.40;83.30
37324;DHT22;23205;49.986;18.950;2023-01-15T08:21:45;8.40;83.00
37324;DHT22;23205;49.986;18.950;2023-01-15T08:26:45;8.50;81.70
37324;DHT22;23205;49.986;18.950;2023-01-15T08:31:46;8.40;82.10
37324;DHT22;23205;49.986;18.950;2023-01-15T08:36:47;8.40;81.70
37324;DHT22;23205;49.986;18.950;2023-01-15T08:41:49;8.40;82.00
37324;DHT22;23205;49.986;18.950;2023-01-15T08:46:50;8.40;80.40
37324;DHT22;23205;49.986;18.950;2023-01-15T08:51:51;8.40;79.80
37324;DHT22;23205;49.986;18.950;2023-01-15T08:56:52;8.40;80.40
37324;DHT22;23205;49.986;18.950;2023-01-15T09:01:53;8.50;79.40
37324;DHT22;23205;49.986;18.950;2023-01-15T09:06:53;8.50;79.00
37324;DHT22;23205;49.986;18.950;2023-01-15T09:11:55;8.50;78.70
37324;DHT22;23205;49.986;18.950;2023-01-15T09:16:55;8.60;78.80
37324;DHT22;23205;49.986;18.950;2023-01-15T09:21:57;8.60;78.00
37324;DHT22;23205;49.986;18.950;2023-01-15T09:26:58;8.70;76.70
37324;DHT22;23205;49.986;18.950;2023-01-15T09:31:58;8.90;76.00
37324;DHT22;23205;49.986;18.950;2023-01-15T09:37:00;9.00;75.40
37324;DHT22;23205;49.986;18.950;2023-01-15T09:47:21;9.00;72.60
37324;DHT22;23205;49.986;18.950;2023-01-15T09:57:44;9.00;72.60
37324;DHT22;23205;49.986;18.950;2023-01-15T10:02:50;9.00;72.80
37324;DHT22;23205;49.986;18.950;2023-01-15T10:12:56;9.00;70.80
37324;DHT22;23205;49.986;18.950;2023-01-15T10:18:01;9.10;71.00
37324;DHT22;23205;49.986;18.950;2023-01-15T10:23:48;9.10;70.80
37324;DHT22;23205;49.986;18.950;2023-01-15T10:28:29;9.10;70.60
37324;DHT22;23205;49.986;18.950;2023-01-15T10:38:36;9.20;73.00
37324;DHT22;23205;49.986;18.950;2023-01-15T10:43:57;9.10;76.80
37324;DHT22;23205;49.986;18.950;2023-01-15T10:49:01;8.90;89.50
37324;DHT22;23205;49.986;18.950;2023-01-15T10:59:26;8.30;95.10
37324;DHT22;23205;49.986;18.950;2023-01-15T11:04:30;8.20;95.20
37324;DHT22;23205;49.986;18.950;2023-01-15T11:09:32;8.10;95.60
37324;DHT22;23205;49.986;18.950;2023-01-15T11:14:42;8.10;96.30
37324;DHT22;23205;49.986;18.950;2023-01-15T11:20:03;8.10;97.00
37324;DHT22;23205;49.986;18.950;2023-01-15T11:25:05;8.10;96.40
37324;DHT22;23205;49.986;18.950;2023-01-15T11:30:23;8.20;96.50
37324;DHT22;23205;49.986;18.950;2023-01-15T11:35:24;8.20;96.50
37324;DHT22;23205;49.986;18.950;2023-01-15T11:40:25;8.30;96.90
37324;DHT22;23205;49.986;18.950;2023-01-15T11:45:26;8.30;96.10
37324;DHT22;23205;49.986;18.950;2023-01-15T11:50:51;8.40;96.90
37324;DHT22;23205;49.986;18.950;2023-01-15T11:55:53;8.50;96.60
37324;DHT22;23205;49.986;18.950;2023-01-15T12:00:54;8.50;96.00
37324;DHT22;23205;49.986;18.950;2023-01-15T12:06:01;8.60;96.00
37324;DHT22;23205;49.986;18.950;2023-01-15T12:31:56;9.20;94.70
37324;DHT22;23205;49.986;18.950;2023-01-15T12:37:05;8.90;95.90
37324;DHT22;23205;49.986;18.950;2023-01-15T12:42:10;8.90;95.70
37324;DHT22;23205;49.986;18.950;2023-01-15T12:52:35;8.80;96.00
37324;DHT22;23205;49.986;18.950;2023-01-15T12:57:39;8.50;96.00
37324;DHT22;23205;49.986;18.950;2023-01-15T13:02:50;8.90;96.80
37324;DHT22;23205;49.986;18.950;2023-01-15T13:07:55;8.80;96.80
37324;DHT22;23205;49.986;18.950;2023-01-15T13:13:01;8.60;97.60
37324;DHT22;23205;49.986;18.950;2023-01-15T13:18:14;8.80;98.40
37324;DHT22;23205;49.986;18.950;2023-01-15T13:38:35;8.40;99.30
37324;DHT22;23205;49.986;18.950;2023-01-15T13:43:41;8.40;99.70
37324;DHT22;23205;49.986;18.950;2023-01-15T13:48:43;8.40;99.90
37324;DHT22;23205;49.986;18.950;2023-01-15T13:53:46;8.30;99.90
37324;DHT22;23205;49.986;18.950;2023-01-15T13:59:00;8.30;99.90
37324;DHT22;23205;49.986;18.950;2023-01-15T14:04:05;8.20;99.90
37324;DHT22;23205;49.986;18.950;2023-01-15T14:09:10;8.30;99.90
37324;DHT22;23205;49.986;18.950;2023-01-15T14:34:59;8.10;99.90
37324;DHT22;23205;49.986;18.950;2023-01-15T14:40:01;8.10;99.90
37324;DHT22;23205;49.986;18.950;2023-01-15T14:45:25;8.00;99.90
37324;DHT22;23205;49.986;18.950;2023-01-15T14:50:38;8.00;99.90
37324;DHT22;23205;49.986;18.950;2023-01-15T15:00:42;8.20;99.90
37324;DHT22;23205;49.986;18.950;2023-01-15T15:05:44;8.00;99.90
37324;DHT22;23205;49.986;18.950;2023-01-15T15:10:45;8.00;99.90
37324;DHT22;23205;49.986;18.950;2023-01-15T15:26:21;8.00;99.90
37324;DHT22;23205;49.986;18.950;2023-01-15T15:31:23;8.00;99.90
37324;DHT22;23205;49.986;18.950;2023-01-15T15:36:28;8.10;99.90
37324;DHT22;23205;49.986;18.950;2023-01-15T15:41:34;8.10;99.90
37324;DHT22;23205;49.986;18.950;2023-01-15T15:46:54;8.10;99.90
37324;DHT22;23205;49.986;18.950;2023-01-15T15:52:14;8.10;99.90
37324;DHT22;23205;49.986;18.950;2023-01-15T15:57:18;8.10;99.90
37324;DHT22;23205;49.986;18.950;2023-01-15T16:12:21;7.90;99.90
37324;DHT22;23205;49.986;18.950;2023-01-15T16:17:22;7.80;99.90
37324;DHT22;23205;49.986;18.950;2023-01-15T16:22:24;7.70;99.90
37324;DHT22;23205;49.986;18.950;2023-01-15T16:27:27;7.70;99.90
37324;DHT22;23205;49.986;18.950;2023-01-15T16:32:29;7.70;99.90
37324;DHT22;23205;49.986;18.950;2023-01-15T16:37:31;7.50;99.90
37324;DHT22;23205;49.986;18.950;2023-01-15T16:42:35;7.40;99.90
37324;DHT22;23205;49.986;18.950;2023-01-15T16:47:36;7.10;99.90
37324;DHT22;23205;49.986;18.950;2023-01-15T16:52:50;6.90;99.90
37324;DHT22;23205;49.986;18.950;2023-01-15T16:58:02;6.90;99.90
37324;DHT22;23205;49.986;18.950;2023-01-15T17:03:13;6.10;99.90
37324;DHT22;23205;49.986;18.950;2023-01-15T17:08:16;5.80;99.90
37324;DHT22;23205;49.986;18.950;2023-01-15T17:13:18;5.60;99.90
37324;DHT22;23205;49.986;18.950;2023-01-15T17:23:27;5.30;99.90
37324;DHT22;23205;49.986;18.950;2023-01-15T17:28:28;5.40;99.90
37324;DHT22;23205;49.986;18.950;2023-01-15T17:33:29;5.40;99.90
37324;DHT22;23205;49.986;18.950;2023-01-15T17:38:30;5.30;99.90
37324;DHT22;23205;49.986;18.950;2023-01-15T17:43:31;5.40;99.90
37324;DHT22;23205;49.986;18.950;2023-01-15T17:48:32;5.40;99.90
37324;DHT22;23205;49.986;18.950;2023-01-15T17:53:33;5.40;99.90
37324;DHT22;23205;49.986;18.950;2023-01-15T17:58:35;5.30;99.90
37324;DHT22;23205;49.986;18.950;2023-01-15T18:03:48;5.40;99.90
37324;DHT22;23205;49.986;18.950;2023-01-15T18:13:56;5.20;99.90
37324;DHT22;23205;49.986;18.950;2023-01-15T18:18:57;5.00;99.90
37324;DHT22;23205;49.986;18.950;2023-01-15T18:23:57;4.90;99.90
37324;DHT22;23205;49.986;18.950;2023-01-15T18:28:59;4.90;99.90
37324;DHT22;23205;49.986;18.950;2023-01-15T18:34:00;4.80;99.90
37324;DHT22;23205;49.986;18.950;2023-01-15T18:39:01;4.80;99.90
37324;DHT22;23205;49.986;18.950;2023-01-15T18:44:13;4.70;99.90
37324;DHT22;23205;49.986;18.950;2023-01-15T18:49:32;4.70;99.90
37324;DHT22;23205;49.986;18.950;2023-01-15T18:54:33;4.80;99.90
37324;DHT22;23205;49.986;18.950;2023-01-15T18:59:34;4.70;99.90
37324;DHT22;23205;49.986;18.950;2023-01-15T19:04:35;4.50;99.90
37324;DHT22;23205;49.986;18.950;2023-01-15T19:09:37;4.70;99.90
37324;DHT22;23205;49.986;18.950;2023-01-15T19:14:38;4.70;99.90
37324;DHT22;23205;49.986;18.950;2023-01-15T19:19:57;4.60;99.90
37324;DHT22;23205;49.986;18.950;2023-01-15T19:24:58;4.60;99.90
37324;DHT22;23205;49.986;18.950;2023-01-15T19:29:59;4.60;99.90
37324;DHT22;23205;49.986;18.950;2023-01-15T19:35:00;4.60;99.90
37324;DHT22;23205;49.986;18.950;2023-01-15T19:40:00;4.60;99.90
37324;DHT22;23205;49.986;18.950;2023-01-15T19:45:01;4.40;99.90
37324;DHT22;23205;49.986;18.950;2023-01-15T19:50:39;4.50;99.90
37324;DHT22;23205;49.986;18.950;2023-01-15T19:55:41;4.50;99.90
37324;DHT22;23205;49.986;18.950;2023-01-15T20:00:43;4.50;99.90
37324;DHT22;23205;49.986;18.950;2023-01-15T20:05:45;4.50;99.90
37324;DHT22;23205;49.986;18.950;2023-01-15T20:10:47;4.30;99.90
37324;DHT22;23205;49.986;18.950;2023-01-15T20:15:48;4.40;99.90
37324;DHT22;23205;49.986;18.950;2023-01-15T20:20:52;4.40;99.90
37324;DHT22;23205;49.986;18.950;2023-01-15T20:25:53;4.40;99.90
37324;DHT22;23205;49.986;18.950;2023-01-15T20:30:59;4.40;99.90
37324;DHT22;23205;49.986;18.950;2023-01-15T20:36:02;4.30;99.90
37324;DHT22;23205;49.986;18.950;2023-01-15T20:41:07;4.30;99.90
37324;DHT22;23205;49.986;18.950;2023-01-15T20:46:37;4.50;99.90
37324;DHT22;23205;49.986;18.950;2023-01-15T20:51:38;4.30;99.90
37324;DHT22;23205;49.986;18.950;2023-01-15T20:56:39;4.30;99.90
37324;DHT22;23205;49.986;18.950;2023-01-15T21:01:40;4.30;99.90
37324;DHT22;23205;49.986;18.950;2023-01-15T21:06:41;4.40;99.90
37324;DHT22;23205;49.986;18.950;2023-01-15T21:11:42;4.30;99.90
37324;DHT22;23205;49.986;18.950;2023-01-15T21:16:42;4.30;99.90
37324;DHT22;23205;49.986;18.950;2023-01-15T21:21:43;4.40;99.90
37324;DHT22;23205;49.986;18.950;2023-01-15T21:26:44;4.30;99.90
37324;DHT22;23205;49.986;18.950;2023-01-15T21:31:46;4.40;99.90
37324;DHT22;23205;49.986;18.950;2023-01-15T21:36:47;4.40;99.90
37324;DHT22;23205;49.986;18.950;2023-01-15T21:41:48;4.50;99.90
37324;DHT22;23205;49.986;18.950;2023-01-15T21:47:17;4.50;99.90
37324;DHT22;23205;49.986;18.950;2023-01-15T21:52:18;4.50;99.90
37324;DHT22;23205;49.986;18.950;2023-01-15T21:57:19;4.50;99.90
37324;DHT22;23205;49.986;18.950;2023-01-15T22:02:21;4.50;99.90
37324;DHT22;23205;49.986;18.950;2023-01-15T22:07:22;4.50;99.90
37324;DHT22;23205;49.986;18.950;2023-01-15T22:12:23;4.60;99.90
37324;DHT22;23205;49.986;18.950;2023-01-15T22:17:24;4.60;99.90
37324;DHT22;23205;49.986;18.950;2023-01-15T22:22:25;4.60;99.90
37324;DHT22;23205;49.986;18.950;2023-01-15T22:27:30;4.70;99.90
37324;DHT22;23205;49.986;18.950;2023-01-15T22:32:33;4.70;99.90
37324;DHT22;23205;49.986;18.950;2023-01-15T22:37:34;4.60;99.90
37324;DHT22;23205;49.986;18.950;2023-01-15T22:42:35;4.70;99.90
37324;DHT22;23205;49.986;18.950;2023-01-15T22:47:36;4.70;99.90
37324;DHT22;23205;49.986;18.950;2023-01-15T22:52:36;4.70;99.90
37324;DHT22;23205;49.986;18.950;2023-01-15T22:57:38;4.60;99.90
37324;DHT22;23205;49.986;18.950;2023-01-15T23:02:39;4.70;99.90
37324;DHT22;23205;49.986;18.950;2023-01-15T23:07:55;4.60;99.90
37324;DHT22;23205;49.986;18.950;2023-01-15T23:12:56;4.60;99.90
37324;DHT22;23205;49.986;18.950;2023-01-15T23:17:56;4.70;99.90
37324;DHT22;23205;49.986;18.950;2023-01-15T23:22:57;4.60;99.90
37324;DHT22;23205;49.986;18.950;2023-01-15T23:27:58;4.60;99.90
37324;DHT22;23205;49.986;18.950;2023-01-15T23:32:58;4.50;99.90
37324;DHT22;23205;49.986;18.950;2023-01-15T23:38:01;4.40;99.90
37324;DHT22;23205;49.986;18.950;2023-01-15T23:43:02;4.50;99.90
37324;DHT22;23205;49.986;18.950;2023-01-15T23:48:21;4.40;99.90
37324;DHT22;23205;49.986;18.950;2023-01-15T23:53:22;4.40;99.90
37324;DHT22;23205;49.986;18.950;2023-01-15T23:58:23;4.40;99.90
